sensor_id;sensor_type;location;lat;lon;timestamp;P1;durP1;ratioP1;P2;durP2;ratioP2
14241;SDS011;7205;50.864;12.766;2023-01-19T00:00:39;6.70;;;5.23;;
14241;SDS011;7205;50.864;12.766;2023-01-19T00:03:06;8.90;;;5.67;;
14241;SDS011;7205;50.864;12.766;2023-01-19T00:05:42;5.70;;;5.10;;
14241;SDS011;7205;50.864;12.766;2023-01-19T00:08:12;6.70;;;5.33;;
14241;SDS011;7205;50.864;12.766;2023-01-19T00:10:43;8.43;;;5.13;;
14241;SDS011;7205;50.864;12.766;2023-01-19T00:13:13;6.93;;;5.27;;
14241;SDS011;7205;50.864;12.766;2023-01-19T00:15:40;9.40;;;5.40;;
14241;SDS011;7205;50.864;12.766;2023-01-19T00:18:07;8.63;;;6.07;;
14241;SDS011;7205;50.864;12.766;2023-01-19T00:20:35;6.83;;;5.23;;
14241;SDS011;7205;50.864;12.766;2023-01-19T00:23:02;8.90;;;5.50;;
14241;SDS011;7205;50.864;12.766;2023-01-19T00:25:29;7.67;;;5.30;;
14241;SDS011;7205;50.864;12.766;2023-01-19T00:27:56;9.80;;;4.80;;
14241;SDS011;7205;50.864;12.766;2023-01-19T00:30:25;9.07;;;4.87;;
14241;SDS011;7205;50.864;12.766;2023-01-19T00:32:54;5.37;;;4.30;;
14241;SDS011;7205;50.864;12.766;2023-01-19T00:35:21;7.57;;;4.77;;
14241;SDS011;7205;50.864;12.766;2023-01-19T00:37:49;7.73;;;4.60;;
14241;SDS011;7205;50.864;12.766;2023-01-19T00:40:16;7.07;;;4.50;;
14241;SDS011;7205;50.864;12.766;2023-01-19T00:42:43;7.20;;;4.43;;
14241;SDS011;7205;50.864;12.766;2023-01-19T00:45:10;5.73;;;4.30;;
14241;SDS011;7205;50.864;12.766;2023-01-19T00:47:45;7.63;;;4.43;;
14241;SDS011;7205;50.864;12.766;2023-01-19T00:50:22;4.43;;;3.90;;
14241;SDS011;7205;50.864;12.766;2023-01-19T00:52:51;8.33;;;4.47;;
14241;SDS011;7205;50.864;12.766;2023-01-19T00:55:18;5.93;;;3.93;;
14241;SDS011;7205;50.864;12.766;2023-01-19T00:57:45;6.07;;;4.27;;
14241;SDS011;7205;50.864;12.766;2023-01-19T01:00:14;7.80;;;4.33;;
14241;SDS011;7205;50.864;12.766;2023-01-19T01:02:45;5.00;;;3.90;;
14241;SDS011;7205;50.864;12.766;2023-01-19T01:05:12;5.17;;;4.50;;
14241;SDS011;7205;50.864;12.766;2023-01-19T01:07:39;6.10;;;3.80;;
14241;SDS011;7205;50.864;12.766;2023-01-19T01:10:09;6.07;;;4.03;;
14241;SDS011;7205;50.864;12.766;2023-01-19T01:12:37;6.37;;;3.83;;
14241;SDS011;7205;50.864;12.766;2023-01-19T01:15:06;4.83;;;3.80;;
14241;SDS011;7205;50.864;12.766;2023-01-19T01:17:34;5.80;;;4.07;;
14241;SDS011;7205;50.864;12.766;2023-01-19T01:20:03;6.37;;;4.43;;
14241;SDS011;7205;50.864;12.766;2023-01-19T01:22:33;5.13;;;4.00;;
14241;SDS011;7205;50.864;12.766;2023-01-19T01:25:00;5.77;;;4.17;;
14241;SDS011;7205;50.864;12.766;2023-01-19T01:27:26;6.57;;;4.20;;
14241;SDS011;7205;50.864;12.766;2023-01-19T01:29:53;4.77;;;4.27;;
14241;SDS011;7205;50.864;12.766;2023-01-19T01:32:20;5.93;;;4.23;;
14241;SDS011;7205;50.864;12.766;2023-01-19T01:34:50;6.80;;;4.23;;
14241;SDS011;7205;50.864;12.766;2023-01-19T01:37:21;5.27;;;4.50;;
14241;SDS011;7205;50.864;12.766;2023-01-19T01:39:48;6.30;;;4.57;;
14241;SDS011;7205;50.864;12.766;2023-01-19T01:42:15;5.23;;;4.23;;
14241;SDS011;7205;50.864;12.766;2023-01-19T01:44:45;5.60;;;4.80;;
14241;SDS011;7205;50.864;12.766;2023-01-19T01:47:19;9.63;;;4.70;;
14241;SDS011;7205;50.864;12.766;2023-01-19T01:49:52;5.70;;;4.70;;
14241;SDS011;7205;50.864;12.766;2023-01-19T01:52:24;5.90;;;4.73;;
14241;SDS011;7205;50.864;12.766;2023-01-19T01:54:54;7.30;;;4.87;;
14241;SDS011;7205;50.864;12.766;2023-01-19T01:57:21;9.23;;;5.60;;
14241;SDS011;7205;50.864;12.766;2023-01-19T01:59:52;7.90;;;4.97;;
14241;SDS011;7205;50.864;12.766;2023-01-19T02:02:21;8.07;;;4.80;;
14241;SDS011;7205;50.864;12.766;2023-01-19T02:05:09;7.07;;;5.23;;
14241;SDS011;7205;50.864;12.766;2023-01-19T02:07:40;5.37;;;4.87;;
14241;SDS011;7205;50.864;12.766;2023-01-19T02:10:28;8.93;;;4.60;;
14241;SDS011;7205;50.864;12.766;2023-01-19T02:13:12;6.17;;;4.37;;
14241;SDS011;7205;50.864;12.766;2023-01-19T02:15:42;4.37;;;3.97;;
14241;SDS011;7205;50.864;12.766;2023-01-19T02:18:09;6.47;;;4.60;;
14241;SDS011;7205;50.864;12.766;2023-01-19T02:20:36;6.80;;;4.47;;
14241;SDS011;7205;50.864;12.766;2023-01-19T02:23:12;10.30;;;3.90;;
14241;SDS011;7205;50.864;12.766;2023-01-19T02:25:46;6.73;;;4.43;;
14241;SDS011;7205;50.864;12.766;2023-01-19T02:28:14;4.53;;;4.13;;
14241;SDS011;7205;50.864;12.766;2023-01-19T02:30:42;5.90;;;4.47;;
14241;SDS011;7205;50.864;12.766;2023-01-19T02:33:09;7.80;;;4.70;;
14241;SDS011;7205;50.864;12.766;2023-01-19T02:35:36;5.33;;;4.67;;
14241;SDS011;7205;50.864;12.766;2023-01-19T02:38:05;6.00;;;4.83;;
14241;SDS011;7205;50.864;12.766;2023-01-19T02:40:33;7.63;;;5.00;;
14241;SDS011;7205;50.864;12.766;2023-01-19T02:43:04;7.07;;;5.03;;
14241;SDS011;7205;50.864;12.766;2023-01-19T02:45:33;4.70;;;4.30;;
14241;SDS011;7205;50.864;12.766;2023-01-19T02:48:01;5.93;;;4.63;;
14241;SDS011;7205;50.864;12.766;2023-01-19T02:50:37;6.07;;;4.50;;
14241;SDS011;7205;50.864;12.766;2023-01-19T02:53:31;6.03;;;4.83;;
14241;SDS011;7205;50.864;12.766;2023-01-19T02:56:06;8.03;;;4.73;;
14241;SDS011;7205;50.864;12.766;2023-01-19T02:58:50;5.80;;;4.40;;
14241;SDS011;7205;50.864;12.766;2023-01-19T03:01:26;6.93;;;5.00;;
14241;SDS011;7205;50.864;12.766;2023-01-19T03:04:07;6.30;;;5.03;;
14241;SDS011;7205;50.864;12.766;2023-01-19T03:06:43;5.93;;;4.90;;
14241;SDS011;7205;50.864;12.766;2023-01-19T03:09:14;6.20;;;5.03;;
14241;SDS011;7205;50.864;12.766;2023-01-19T03:11:54;5.33;;;4.83;;
14241;SDS011;7205;50.864;12.766;2023-01-19T03:14:28;6.10;;;4.83;;
14241;SDS011;7205;50.864;12.766;2023-01-19T03:17:00;5.63;;;4.73;;
14241;SDS011;7205;50.864;12.766;2023-01-19T03:19:31;9.20;;;5.03;;
14241;SDS011;7205;50.864;12.766;2023-01-19T03:22:02;7.13;;;4.93;;
14241;SDS011;7205;50.864;12.766;2023-01-19T03:24:32;6.73;;;5.17;;
14241;SDS011;7205;50.864;12.766;2023-01-19T03:27:05;6.17;;;5.10;;
14241;SDS011;7205;50.864;12.766;2023-01-19T03:29:38;6.37;;;4.73;;
14241;SDS011;7205;50.864;12.766;2023-01-19T03:32:10;5.63;;;4.63;;
14241;SDS011;7205;50.864;12.766;2023-01-19T03:34:41;6.77;;;5.20;;
14241;SDS011;7205;50.864;12.766;2023-01-19T03:37:12;7.40;;;4.90;;
14241;SDS011;7205;50.864;12.766;2023-01-19T03:39:41;5.97;;;4.77;;
14241;SDS011;7205;50.864;12.766;2023-01-19T03:42:08;5.37;;;4.87;;
14241;SDS011;7205;50.864;12.766;2023-01-19T03:44:40;7.33;;;5.20;;
14241;SDS011;7205;50.864;12.766;2023-01-19T03:47:09;7.53;;;5.67;;
14241;SDS011;7205;50.864;12.766;2023-01-19T03:49:39;7.40;;;5.00;;
14241;SDS011;7205;50.864;12.766;2023-01-19T03:52:09;5.90;;;5.20;;
14241;SDS011;7205;50.864;12.766;2023-01-19T03:54:37;5.50;;;4.70;;
14241;SDS011;7205;50.864;12.766;2023-01-19T03:57:03;5.33;;;4.83;;
14241;SDS011;7205;50.864;12.766;2023-01-19T03:59:30;7.90;;;5.67;;
14241;SDS011;7205;50.864;12.766;2023-01-19T04:01:58;7.27;;;4.63;;
14241;SDS011;7205;50.864;12.766;2023-01-19T04:04:25;9.27;;;5.13;;
14241;SDS011;7205;50.864;12.766;2023-01-19T04:06:52;6.63;;;4.47;;
14241;SDS011;7205;50.864;12.766;2023-01-19T04:09:19;7.03;;;4.90;;
14241;SDS011;7205;50.864;12.766;2023-01-19T04:11:46;6.47;;;5.13;;
14241;SDS011;7205;50.864;12.766;2023-01-19T04:14:12;5.67;;;4.73;;
14241;SDS011;7205;50.864;12.766;2023-01-19T04:16:39;4.83;;;4.33;;
14241;SDS011;7205;50.864;12.766;2023-01-19T04:19:07;6.37;;;4.87;;
14241;SDS011;7205;50.864;12.766;2023-01-19T04:21:34;7.33;;;4.67;;
14241;SDS011;7205;50.864;12.766;2023-01-19T04:24:01;5.67;;;4.77;;
14241;SDS011;7205;50.864;12.766;2023-01-19T04:26:28;6.83;;;4.93;;
14241;SDS011;7205;50.864;12.766;2023-01-19T04:28:55;5.53;;;4.93;;
14241;SDS011;7205;50.864;12.766;2023-01-19T04:31:22;7.03;;;5.13;;
14241;SDS011;7205;50.864;12.766;2023-01-19T04:33:49;8.00;;;4.93;;
14241;SDS011;7205;50.864;12.766;2023-01-19T04:36:17;6.40;;;5.10;;
14241;SDS011;7205;50.864;12.766;2023-01-19T04:38:44;6.50;;;4.97;;
14241;SDS011;7205;50.864;12.766;2023-01-19T04:41:12;9.57;;;5.40;;
14241;SDS011;7205;50.864;12.766;2023-01-19T04:43:39;6.53;;;5.20;;
14241;SDS011;7205;50.864;12.766;2023-01-19T04:46:06;7.33;;;5.53;;
14241;SDS011;7205;50.864;12.766;2023-01-19T04:48:33;6.23;;;4.83;;
14241;SDS011;7205;50.864;12.766;2023-01-19T04:51:00;5.97;;;4.83;;
14241;SDS011;7205;50.864;12.766;2023-01-19T04:53:28;6.70;;;4.83;;
14241;SDS011;7205;50.864;12.766;2023-01-19T04:55:55;6.03;;;5.10;;
14241;SDS011;7205;50.864;12.766;2023-01-19T04:58:23;10.27;;;8.37;;
14241;SDS011;7205;50.864;12.766;2023-01-19T05:00:50;11.13;;;8.33;;
14241;SDS011;7205;50.864;12.766;2023-01-19T05:03:17;14.07;;;9.37;;
14241;SDS011;7205;50.864;12.766;2023-01-19T05:05:44;14.90;;;9.17;;
14241;SDS011;7205;50.864;12.766;2023-01-19T05:08:11;15.23;;;10.13;;
14241;SDS011;7205;50.864;12.766;2023-01-19T05:10:40;9.17;;;6.00;;
14241;SDS011;7205;50.864;12.766;2023-01-19T05:13:06;8.37;;;5.60;;
14241;SDS011;7205;50.864;12.766;2023-01-19T05:15:33;8.37;;;5.77;;
14241;SDS011;7205;50.864;12.766;2023-01-19T05:18:00;6.63;;;5.33;;
14241;SDS011;7205;50.864;12.766;2023-01-19T05:20:27;7.60;;;5.80;;
14241;SDS011;7205;50.864;12.766;2023-01-19T05:22:53;9.30;;;6.80;;
14241;SDS011;7205;50.864;12.766;2023-01-19T05:25:20;6.83;;;5.13;;
14241;SDS011;7205;50.864;12.766;2023-01-19T05:27:48;9.20;;;6.43;;
14241;SDS011;7205;50.864;12.766;2023-01-19T05:30:15;8.13;;;6.10;;
14241;SDS011;7205;50.864;12.766;2023-01-19T05:32:43;9.27;;;6.33;;
14241;SDS011;7205;50.864;12.766;2023-01-19T05:35:10;8.27;;;6.00;;
14241;SDS011;7205;50.864;12.766;2023-01-19T05:37:37;7.10;;;5.80;;
14241;SDS011;7205;50.864;12.766;2023-01-19T05:40:05;6.13;;;5.47;;
14241;SDS011;7205;50.864;12.766;2023-01-19T05:42:33;6.27;;;5.67;;
14241;SDS011;7205;50.864;12.766;2023-01-19T05:45:01;6.37;;;5.43;;
14241;SDS011;7205;50.864;12.766;2023-01-19T05:47:28;7.70;;;5.60;;
14241;SDS011;7205;50.864;12.766;2023-01-19T05:49:55;7.43;;;5.80;;
14241;SDS011;7205;50.864;12.766;2023-01-19T05:52:23;10.70;;;7.23;;
14241;SDS011;7205;50.864;12.766;2023-01-19T05:54:50;8.73;;;5.70;;
14241;SDS011;7205;50.864;12.766;2023-01-19T05:57:19;8.53;;;5.60;;
14241;SDS011;7205;50.864;12.766;2023-01-19T05:59:46;8.13;;;5.30;;
14241;SDS011;7205;50.864;12.766;2023-01-19T06:02:14;8.60;;;5.60;;
14241;SDS011;7205;50.864;12.766;2023-01-19T06:04:41;6.63;;;5.77;;
14241;SDS011;7205;50.864;12.766;2023-01-19T06:07:09;8.10;;;5.50;;
14241;SDS011;7205;50.864;12.766;2023-01-19T06:09:36;9.43;;;7.20;;
14241;SDS011;7205;50.864;12.766;2023-01-19T06:12:02;7.00;;;6.27;;
14241;SDS011;7205;50.864;12.766;2023-01-19T06:14:30;9.10;;;6.53;;
14241;SDS011;7205;50.864;12.766;2023-01-19T06:16:57;9.30;;;7.13;;
14241;SDS011;7205;50.864;12.766;2023-01-19T06:19:26;8.40;;;5.90;;
14241;SDS011;7205;50.864;12.766;2023-01-19T06:21:52;6.37;;;5.40;;
14241;SDS011;7205;50.864;12.766;2023-01-19T06:24:19;9.60;;;5.50;;
14241;SDS011;7205;50.864;12.766;2023-01-19T06:26:47;7.67;;;5.70;;
14241;SDS011;7205;50.864;12.766;2023-01-19T06:29:14;8.83;;;6.40;;
14241;SDS011;7205;50.864;12.766;2023-01-19T06:31:40;9.50;;;6.13;;
14241;SDS011;7205;50.864;12.766;2023-01-19T06:34:08;5.03;;;4.63;;
14241;SDS011;7205;50.864;12.766;2023-01-19T06:36:37;6.67;;;5.33;;
14241;SDS011;7205;50.864;12.766;2023-01-19T06:39:04;7.10;;;5.23;;
14241;SDS011;7205;50.864;12.766;2023-01-19T06:41:31;8.07;;;5.10;;
14241;SDS011;7205;50.864;12.766;2023-01-19T06:43:58;8.13;;;5.00;;
14241;SDS011;7205;50.864;12.766;2023-01-19T06:46:24;7.73;;;4.80;;
14241;SDS011;7205;50.864;12.766;2023-01-19T06:48:51;5.83;;;4.47;;
14241;SDS011;7205;50.864;12.766;2023-01-19T06:51:18;5.63;;;4.87;;
14241;SDS011;7205;50.864;12.766;2023-01-19T06:53:46;7.73;;;5.57;;
14241;SDS011;7205;50.864;12.766;2023-01-19T06:56:17;9.17;;;5.43;;
14241;SDS011;7205;50.864;12.766;2023-01-19T06:58:45;10.00;;;5.00;;
14241;SDS011;7205;50.864;12.766;2023-01-19T07:01:14;5.80;;;4.83;;
14241;SDS011;7205;50.864;12.766;2023-01-19T07:03:41;5.47;;;4.93;;
14241;SDS011;7205;50.864;12.766;2023-01-19T07:06:08;6.73;;;5.30;;
14241;SDS011;7205;50.864;12.766;2023-01-19T07:08:35;10.80;;;5.70;;
14241;SDS011;7205;50.864;12.766;2023-01-19T07:11:06;8.47;;;5.40;;
14241;SDS011;7205;50.864;12.766;2023-01-19T07:13:35;7.80;;;5.17;;
14241;SDS011;7205;50.864;12.766;2023-01-19T07:16:03;8.57;;;5.13;;
14241;SDS011;7205;50.864;12.766;2023-01-19T07:18:30;5.80;;;5.20;;
14241;SDS011;7205;50.864;12.766;2023-01-19T07:20:57;6.23;;;5.20;;
14241;SDS011;7205;50.864;12.766;2023-01-19T07:23:24;8.37;;;4.97;;
14241;SDS011;7205;50.864;12.766;2023-01-19T07:25:54;6.13;;;4.97;;
14241;SDS011;7205;50.864;12.766;2023-01-19T07:28:23;9.53;;;4.87;;
14241;SDS011;7205;50.864;12.766;2023-01-19T07:30:50;8.07;;;5.80;;
14241;SDS011;7205;50.864;12.766;2023-01-19T07:33:17;10.47;;;6.90;;
14241;SDS011;7205;50.864;12.766;2023-01-19T07:35:46;7.13;;;5.50;;
14241;SDS011;7205;50.864;12.766;2023-01-19T07:38:13;9.60;;;6.37;;
14241;SDS011;7205;50.864;12.766;2023-01-19T07:40:40;6.57;;;5.10;;
14241;SDS011;7205;50.864;12.766;2023-01-19T07:43:07;7.50;;;5.20;;
14241;SDS011;7205;50.864;12.766;2023-01-19T07:45:35;5.53;;;4.63;;
14241;SDS011;7205;50.864;12.766;2023-01-19T07:48:02;6.67;;;4.87;;
14241;SDS011;7205;50.864;12.766;2023-01-19T07:50:31;5.07;;;4.57;;
14241;SDS011;7205;50.864;12.766;2023-01-19T07:53:03;6.60;;;4.63;;
14241;SDS011;7205;50.864;12.766;2023-01-19T07:55:30;4.93;;;4.43;;
14241;SDS011;7205;50.864;12.766;2023-01-19T07:57:57;5.47;;;4.77;;
14241;SDS011;7205;50.864;12.766;2023-01-19T08:00:24;5.37;;;4.67;;
14241;SDS011;7205;50.864;12.766;2023-01-19T08:02:57;4.73;;;4.23;;
14241;SDS011;7205;50.864;12.766;2023-01-19T08:05:24;6.07;;;4.53;;
14241;SDS011;7205;50.864;12.766;2023-01-19T08:07:51;5.03;;;4.23;;
14241;SDS011;7205;50.864;12.766;2023-01-19T08:10:20;5.43;;;4.73;;
14241;SDS011;7205;50.864;12.766;2023-01-19T08:12:50;6.30;;;5.20;;
14241;SDS011;7205;50.864;12.766;2023-01-19T08:15:17;6.73;;;4.50;;
14241;SDS011;7205;50.864;12.766;2023-01-19T08:17:44;7.63;;;4.40;;
14241;SDS011;7205;50.864;12.766;2023-01-19T08:20:12;4.67;;;4.20;;
14241;SDS011;7205;50.864;12.766;2023-01-19T08:22:39;6.03;;;4.93;;
14241;SDS011;7205;50.864;12.766;2023-01-19T08:25:06;5.00;;;4.60;;
14241;SDS011;7205;50.864;12.766;2023-01-19T08:27:34;6.60;;;5.27;;
14241;SDS011;7205;50.864;12.766;2023-01-19T08:30:00;6.83;;;4.90;;
14241;SDS011;7205;50.864;12.766;2023-01-19T08:32:27;10.87;;;6.50;;
14241;SDS011;7205;50.864;12.766;2023-01-19T08:35:02;7.70;;;5.17;;
14241;SDS011;7205;50.864;12.766;2023-01-19T08:37:34;5.70;;;4.80;;
14241;SDS011;7205;50.864;12.766;2023-01-19T08:40:01;6.20;;;5.13;;
14241;SDS011;7205;50.864;12.766;2023-01-19T08:42:35;5.40;;;4.87;;
14241;SDS011;7205;50.864;12.766;2023-01-19T08:45:02;5.67;;;4.83;;
14241;SDS011;7205;50.864;12.766;2023-01-19T08:47:30;7.53;;;5.20;;
14241;SDS011;7205;50.864;12.766;2023-01-19T08:49:56;4.60;;;4.20;;
14241;SDS011;7205;50.864;12.766;2023-01-19T08:52:23;7.00;;;5.10;;
14241;SDS011;7205;50.864;12.766;2023-01-19T08:54:52;6.50;;;4.90;;
14241;SDS011;7205;50.864;12.766;2023-01-19T08:57:19;6.77;;;5.23;;
14241;SDS011;7205;50.864;12.766;2023-01-19T08:59:45;5.53;;;4.90;;
14241;SDS011;7205;50.864;12.766;2023-01-19T09:02:12;5.60;;;4.97;;
14241;SDS011;7205;50.864;12.766;2023-01-19T09:04:39;6.37;;;4.93;;
14241;SDS011;7205;50.864;12.766;2023-01-19T09:07:08;5.77;;;5.00;;
14241;SDS011;7205;50.864;12.766;2023-01-19T09:09:35;8.60;;;5.17;;
14241;SDS011;7205;50.864;12.766;2023-01-19T09:12:05;6.40;;;4.73;;
14241;SDS011;7205;50.864;12.766;2023-01-19T09:14:32;5.60;;;4.53;;
14241;SDS011;7205;50.864;12.766;2023-01-19T09:16:58;7.83;;;4.80;;
14241;SDS011;7205;50.864;12.766;2023-01-19T09:19:25;7.37;;;5.20;;
14241;SDS011;7205;50.864;12.766;2023-01-19T09:21:52;7.60;;;5.17;;
14241;SDS011;7205;50.864;12.766;2023-01-19T09:24:19;4.63;;;4.20;;
14241;SDS011;7205;50.864;12.766;2023-01-19T09:26:46;7.63;;;4.90;;
14241;SDS011;7205;50.864;12.766;2023-01-19T09:29:14;5.60;;;5.10;;
14241;SDS011;7205;50.864;12.766;2023-01-19T09:31:41;6.43;;;5.10;;
14241;SDS011;7205;50.864;12.766;2023-01-19T09:34:09;5.20;;;4.70;;
14241;SDS011;7205;50.864;12.766;2023-01-19T09:36:36;5.83;;;5.17;;
14241;SDS011;7205;50.864;12.766;2023-01-19T09:39:04;7.00;;;5.37;;
14241;SDS011;7205;50.864;12.766;2023-01-19T09:41:31;8.63;;;4.73;;
14241;SDS011;7205;50.864;12.766;2023-01-19T09:44:02;7.13;;;4.87;;
14241;SDS011;7205;50.864;12.766;2023-01-19T09:46:35;6.43;;;5.20;;
14241;SDS011;7205;50.864;12.766;2023-01-19T09:49:06;7.97;;;5.30;;
14241;SDS011;7205;50.864;12.766;2023-01-19T09:51:39;6.37;;;5.27;;
14241;SDS011;7205;50.864;12.766;2023-01-19T09:54:10;6.03;;;5.23;;
14241;SDS011;7205;50.864;12.766;2023-01-19T09:56:40;8.30;;;5.90;;
14241;SDS011;7205;50.864;12.766;2023-01-19T09:59:14;7.60;;;5.07;;
14241;SDS011;7205;50.864;12.766;2023-01-19T10:01:48;8.00;;;6.03;;
14241;SDS011;7205;50.864;12.766;2023-01-19T10:04:26;9.10;;;6.13;;
14241;SDS011;7205;50.864;12.766;2023-01-19T10:07:05;11.27;;;5.97;;
14241;SDS011;7205;50.864;12.766;2023-01-19T10:09:37;7.67;;;5.57;;
14241;SDS011;7205;50.864;12.766;2023-01-19T10:12:16;8.27;;;6.00;;
14241;SDS011;7205;50.864;12.766;2023-01-19T10:14:55;6.33;;;5.57;;
14241;SDS011;7205;50.864;12.766;2023-01-19T10:17:33;6.60;;;5.43;;
14241;SDS011;7205;50.864;12.766;2023-01-19T10:20:09;6.37;;;5.77;;
14241;SDS011;7205;50.864;12.766;2023-01-19T10:22:42;8.37;;;5.60;;
14241;SDS011;7205;50.864;12.766;2023-01-19T10:25:13;6.03;;;5.43;;
14241;SDS011;7205;50.864;12.766;2023-01-19T10:27:44;6.83;;;5.37;;
14241;SDS011;7205;50.864;12.766;2023-01-19T10:30:14;6.23;;;5.63;;
14241;SDS011;7205;50.864;12.766;2023-01-19T10:32:48;6.53;;;5.70;;
14241;SDS011;7205;50.864;12.766;2023-01-19T10:35:16;7.27;;;5.83;;
14241;SDS011;7205;50.864;12.766;2023-01-19T10:37:48;6.73;;;6.03;;
14241;SDS011;7205;50.864;12.766;2023-01-19T10:40:20;7.23;;;5.57;;
14241;SDS011;7205;50.864;12.766;2023-01-19T10:42:53;7.13;;;5.73;;
14241;SDS011;7205;50.864;12.766;2023-01-19T10:45:22;5.87;;;5.27;;
14241;SDS011;7205;50.864;12.766;2023-01-19T10:47:56;6.87;;;5.87;;
14241;SDS011;7205;50.864;12.766;2023-01-19T10:50:26;15.93;;;10.83;;
14241;SDS011;7205;50.864;12.766;2023-01-19T10:52:56;6.07;;;5.40;;
14241;SDS011;7205;50.864;12.766;2023-01-19T10:55:25;6.90;;;5.73;;
14241;SDS011;7205;50.864;12.766;2023-01-19T10:57:58;8.13;;;6.30;;
14241;SDS011;7205;50.864;12.766;2023-01-19T11:00:30;7.93;;;6.73;;
14241;SDS011;7205;50.864;12.766;2023-01-19T11:03:00;7.63;;;5.80;;
14241;SDS011;7205;50.864;12.766;2023-01-19T11:05:31;6.50;;;5.90;;
14241;SDS011;7205;50.864;12.766;2023-01-19T11:08:13;7.17;;;5.93;;
14241;SDS011;7205;50.864;12.766;2023-01-19T11:10:51;6.87;;;5.70;;
14241;SDS011;7205;50.864;12.766;2023-01-19T11:13:22;9.90;;;5.83;;
14241;SDS011;7205;50.864;12.766;2023-01-19T11:15:49;8.40;;;5.97;;
14241;SDS011;7205;50.864;12.766;2023-01-19T11:18:23;7.40;;;6.00;;
14241;SDS011;7205;50.864;12.766;2023-01-19T11:20:58;8.60;;;5.80;;
14241;SDS011;7205;50.864;12.766;2023-01-19T11:23:27;8.20;;;6.40;;
14241;SDS011;7205;50.864;12.766;2023-01-19T11:25:58;7.33;;;5.93;;
14241;SDS011;7205;50.864;12.766;2023-01-19T11:28:28;6.40;;;5.63;;
14241;SDS011;7205;50.864;12.766;2023-01-19T11:30:59;5.97;;;5.37;;
14241;SDS011;7205;50.864;12.766;2023-01-19T11:33:35;6.77;;;5.57;;
14241;SDS011;7205;50.864;12.766;2023-01-19T11:36:08;6.50;;;5.83;;
14241;SDS011;7205;50.864;12.766;2023-01-19T11:38:41;6.50;;;5.63;;
14241;SDS011;7205;50.864;12.766;2023-01-19T11:41:13;7.50;;;6.13;;
14241;SDS011;7205;50.864;12.766;2023-01-19T11:43:44;7.93;;;6.03;;
14241;SDS011;7205;50.864;12.766;2023-01-19T11:46:12;7.67;;;5.67;;
14241;SDS011;7205;50.864;12.766;2023-01-19T11:48:41;6.10;;;5.47;;
14241;SDS011;7205;50.864;12.766;2023-01-19T11:51:12;5.77;;;5.23;;
14241;SDS011;7205;50.864;12.766;2023-01-19T11:53:41;6.43;;;5.70;;
14241;SDS011;7205;50.864;12.766;2023-01-19T11:56:12;7.00;;;5.93;;
14241;SDS011;7205;50.864;12.766;2023-01-19T11:58:40;6.10;;;5.50;;
14241;SDS011;7205;50.864;12.766;2023-01-19T12:01:13;7.93;;;6.67;;
14241;SDS011;7205;50.864;12.766;2023-01-19T12:03:49;5.87;;;5.37;;
14241;SDS011;7205;50.864;12.766;2023-01-19T12:06:21;8.73;;;6.07;;
14241;SDS011;7205;50.864;12.766;2023-01-19T12:08:55;5.77;;;4.90;;
14241;SDS011;7205;50.864;12.766;2023-01-19T12:11:54;7.17;;;5.40;;
14241;SDS011;7205;50.864;12.766;2023-01-19T12:14:27;6.13;;;5.33;;
14241;SDS011;7205;50.864;12.766;2023-01-19T12:17:02;9.30;;;6.70;;
14241;SDS011;7205;50.864;12.766;2023-01-19T12:19:34;5.53;;;5.00;;
14241;SDS011;7205;50.864;12.766;2023-01-19T12:22:08;6.77;;;5.77;;
14241;SDS011;7205;50.864;12.766;2023-01-19T12:24:43;7.57;;;6.27;;
14241;SDS011;7205;50.864;12.766;2023-01-19T12:27:17;11.40;;;7.63;;
14241;SDS011;7205;50.864;12.766;2023-01-19T12:29:52;6.63;;;5.73;;
14241;SDS011;7205;50.864;12.766;2023-01-19T12:32:30;8.27;;;6.60;;
14241;SDS011;7205;50.864;12.766;2023-01-19T12:35:07;9.17;;;5.90;;
14241;SDS011;7205;50.864;12.766;2023-01-19T12:38:22;6.00;;;5.03;;
14241;SDS011;7205;50.864;12.766;2023-01-19T12:43:47;7.03;;;6.03;;
14241;SDS011;7205;50.864;12.766;2023-01-19T12:46:30;7.80;;;6.13;;
14241;SDS011;7205;50.864;12.766;2023-01-19T12:49:02;7.33;;;6.30;;
14241;SDS011;7205;50.864;12.766;2023-01-19T12:51:38;6.83;;;6.23;;
14241;SDS011;7205;50.864;12.766;2023-01-19T12:54:06;7.17;;;5.50;;
14241;SDS011;7205;50.864;12.766;2023-01-19T12:56:42;6.17;;;5.67;;
14241;SDS011;7205;50.864;12.766;2023-01-19T12:59:16;6.33;;;5.60;;
14241;SDS011;7205;50.864;12.766;2023-01-19T13:05:08;8.13;;;5.27;;
14241;SDS011;7205;50.864;12.766;2023-01-19T13:13:41;6.67;;;5.43;;
14241;SDS011;7205;50.864;12.766;2023-01-19T13:19:14;5.77;;;5.20;;
14241;SDS011;7205;50.864;12.766;2023-01-19T13:21:43;6.40;;;5.73;;
14241;SDS011;7205;50.864;12.766;2023-01-19T13:24:11;6.40;;;5.10;;
14241;SDS011;7205;50.864;12.766;2023-01-19T13:26:42;4.83;;;4.23;;
14241;SDS011;7205;50.864;12.766;2023-01-19T13:29:21;5.33;;;4.83;;
14241;SDS011;7205;50.864;12.766;2023-01-19T13:31:54;5.33;;;4.53;;
14241;SDS011;7205;50.864;12.766;2023-01-19T13:34:27;4.90;;;4.40;;
14241;SDS011;7205;50.864;12.766;2023-01-19T13:36:55;5.73;;;4.60;;
14241;SDS011;7205;50.864;12.766;2023-01-19T13:39:26;4.70;;;4.33;;
14241;SDS011;7205;50.864;12.766;2023-01-19T13:41:59;6.30;;;5.00;;
14241;SDS011;7205;50.864;12.766;2023-01-19T13:44:30;7.77;;;6.63;;
14241;SDS011;7205;50.864;12.766;2023-01-19T13:47:01;7.00;;;4.70;;
14241;SDS011;7205;50.864;12.766;2023-01-19T13:49:30;4.90;;;4.50;;
14241;SDS011;7205;50.864;12.766;2023-01-19T13:52:04;5.23;;;4.73;;
14241;SDS011;7205;50.864;12.766;2023-01-19T13:54:47;5.63;;;4.40;;
14241;SDS011;7205;50.864;12.766;2023-01-19T13:57:23;4.80;;;4.40;;
14241;SDS011;7205;50.864;12.766;2023-01-19T14:00:02;5.47;;;4.60;;
14241;SDS011;7205;50.864;12.766;2023-01-19T14:02:36;5.30;;;4.50;;
14241;SDS011;7205;50.864;12.766;2023-01-19T14:05:13;6.13;;;5.03;;
14241;SDS011;7205;50.864;12.766;2023-01-19T14:07:40;4.97;;;4.57;;
14241;SDS011;7205;50.864;12.766;2023-01-19T14:10:11;4.70;;;4.27;;
14241;SDS011;7205;50.864;12.766;2023-01-19T14:12:44;5.57;;;4.87;;
14241;SDS011;7205;50.864;12.766;2023-01-19T14:15:16;5.90;;;4.23;;
14241;SDS011;7205;50.864;12.766;2023-01-19T14:17:43;4.37;;;3.97;;
14241;SDS011;7205;50.864;12.766;2023-01-19T14:20:26;3.90;;;3.60;;
14241;SDS011;7205;50.864;12.766;2023-01-19T14:23:04;6.03;;;4.20;;
14241;SDS011;7205;50.864;12.766;2023-01-19T14:25:54;4.30;;;4.00;;
14241;SDS011;7205;50.864;12.766;2023-01-19T14:32:02;5.80;;;4.10;;
14241;SDS011;7205;50.864;12.766;2023-01-19T14:35:10;5.17;;;4.67;;
14241;SDS011;7205;50.864;12.766;2023-01-19T14:38:13;5.30;;;4.43;;
14241;SDS011;7205;50.864;12.766;2023-01-19T14:41:22;5.17;;;4.67;;
14241;SDS011;7205;50.864;12.766;2023-01-19T14:44:33;4.47;;;4.07;;
14241;SDS011;7205;50.864;12.766;2023-01-19T14:47:02;4.70;;;4.27;;
14241;SDS011;7205;50.864;12.766;2023-01-19T14:49:35;5.27;;;4.80;;
14241;SDS011;7205;50.864;12.766;2023-01-19T14:52:25;4.80;;;4.40;;
14241;SDS011;7205;50.864;12.766;2023-01-19T14:55:01;5.23;;;4.53;;
14241;SDS011;7205;50.864;12.766;2023-01-19T14:57:57;5.23;;;4.63;;
14241;SDS011;7205;50.864;12.766;2023-01-19T15:01:01;5.13;;;4.73;;
14241;SDS011;7205;50.864;12.766;2023-01-19T15:04:19;5.07;;;3.93;;
14241;SDS011;7205;50.864;12.766;2023-01-19T15:07:21;4.67;;;4.27;;
14241;SDS011;7205;50.864;12.766;2023-01-19T15:10:16;5.73;;;4.00;;
14241;SDS011;7205;50.864;12.766;2023-01-19T15:12:55;4.57;;;3.90;;
14241;SDS011;7205;50.864;12.766;2023-01-19T15:15:50;4.13;;;3.73;;
14241;SDS011;7205;50.864;12.766;2023-01-19T15:21:15;5.00;;;4.40;;
14241;SDS011;7205;50.864;12.766;2023-01-19T15:23:44;6.77;;;4.17;;
14241;SDS011;7205;50.864;12.766;2023-01-19T15:26:18;3.90;;;3.60;;
14241;SDS011;7205;50.864;12.766;2023-01-19T15:28:57;5.53;;;3.97;;
14241;SDS011;7205;50.864;12.766;2023-01-19T15:31:41;5.43;;;3.90;;
14241;SDS011;7205;50.864;12.766;2023-01-19T15:34:10;3.90;;;3.50;;